sensor_id;sensor_type;location;lat;lon;timestamp;temperature;humidity
24148;DHT22;12309;51.450;-2.624;2022-09-23T00:00:41;15.70;99.90
24148;DHT22;12309;51.450;-2.624;2022-09-23T00:03:07;15.40;99.90
24148;DHT22;12309;51.450;-2.624;2022-09-23T00:05:33;15.70;99.90
24148;DHT22;12309;51.450;-2.624;2022-09-23T00:07:59;15.70;99.90
24148;DHT22;12309;51.450;-2.624;2022-09-23T00:10:27;15.70;99.90
24148;DHT22;12309;51.450;-2.624;2022-09-23T00:12:53;15.80;99.90
24148;DHT22;12309;51.450;-2.624;2022-09-23T00:15:19;15.70;99.90
24148;DHT22;12309;51.450;-2.624;2022-09-23T00:17:45;15.70;99.90
24148;DHT22;12309;51.450;-2.624;2022-09-23T00:20:12;15.80;99.90
24148;DHT22;12309;51.450;-2.624;2022-09-23T00:22:38;15.80;99.90
24148;DHT22;12309;51.450;-2.624;2022-09-23T00:25:07;15.80;99.90
24148;DHT22;12309;51.450;-2.624;2022-09-23T00:27:34;15.70;99.90
24148;DHT22;12309;51.450;-2.624;2022-09-23T00:30:01;15.70;99.90
24148;DHT22;12309;51.450;-2.624;2022-09-23T00:32:26;15.70;99.90
24148;DHT22;12309;51.450;-2.624;2022-09-23T00:34:52;15.70;99.90
24148;DHT22;12309;51.450;-2.624;2022-09-23T00:37:19;15.70;99.90
24148;DHT22;12309;51.450;-2.624;2022-09-23T00:39:45;15.60;99.90
24148;DHT22;12309;51.450;-2.624;2022-09-23T00:42:20;15.60;99.90
24148;DHT22;12309;51.450;-2.624;2022-09-23T00:44:48;15.50;99.90
24148;DHT22;12309;51.450;-2.624;2022-09-23T00:49:48;15.50;99.90
24148;DHT22;12309;51.450;-2.624;2022-09-23T00:52:17;15.50;99.90
24148;DHT22;12309;51.450;-2.624;2022-09-23T00:54:46;15.50;99.90
24148;DHT22;12309;51.450;-2.624;2022-09-23T00:57:15;15.50;99.90
24148;DHT22;12309;51.450;-2.624;2022-09-23T00:59:41;15.50;99.90
24148;DHT22;12309;51.450;-2.624;2022-09-23T01:02:08;15.50;99.90
24148;DHT22;12309;51.450;-2.624;2022-09-23T01:04:35;15.40;99.90
24148;DHT22;12309;51.450;-2.624;2022-09-23T01:07:01;15.40;99.90
24148;DHT22;12309;51.450;-2.624;2022-09-23T01:09:27;15.40;99.90
24148;DHT22;12309;51.450;-2.624;2022-09-23T01:14:47;15.30;99.90
24148;DHT22;12309;51.450;-2.624;2022-09-23T01:23:18;15.50;99.90
24148;DHT22;12309;51.450;-2.624;2022-09-23T01:28:59;15.50;99.90
24148;DHT22;12309;51.450;-2.624;2022-09-23T01:31:44;15.60;99.90
24148;DHT22;12309;51.450;-2.624;2022-09-23T01:34:22;15.60;99.90
24148;DHT22;12309;51.450;-2.624;2022-09-23T01:39:44;15.50;99.90
24148;DHT22;12309;51.450;-2.624;2022-09-23T01:42:30;15.50;99.90
24148;DHT22;12309;51.450;-2.624;2022-09-23T01:45:14;15.60;99.90
24148;DHT22;12309;51.450;-2.624;2022-09-23T01:47:48;15.60;99.90
24148;DHT22;12309;51.450;-2.624;2022-09-23T01:50:18;15.70;99.90
24148;DHT22;12309;51.450;-2.624;2022-09-23T01:53:11;15.80;99.90
24148;DHT22;12309;51.450;-2.624;2022-09-23T01:55:42;15.80;99.90
24148;DHT22;12309;51.450;-2.624;2022-09-23T01:58:20;15.90;99.90
24148;DHT22;12309;51.450;-2.624;2022-09-23T02:00:53;16.00;99.90
24148;DHT22;12309;51.450;-2.624;2022-09-23T02:03:25;15.90;99.90
24148;DHT22;12309;51.450;-2.624;2022-09-23T02:06:00;16.00;99.90
24148;DHT22;12309;51.450;-2.624;2022-09-23T02:11:06;16.00;99.90
24148;DHT22;12309;51.450;-2.624;2022-09-23T02:13:53;16.00;99.90
24148;DHT22;12309;51.450;-2.624;2022-09-23T02:16:21;16.10;99.90
24148;DHT22;12309;51.450;-2.624;2022-09-23T02:18:56;16.10;99.90
24148;DHT22;12309;51.450;-2.624;2022-09-23T02:21:26;16.20;99.90
24148;DHT22;12309;51.450;-2.624;2022-09-23T02:24:02;16.10;99.90
24148;DHT22;12309;51.450;-2.624;2022-09-23T02:29:23;16.20;99.90
24148;DHT22;12309;51.450;-2.624;2022-09-23T02:31:59;16.20;99.90
24148;DHT22;12309;51.450;-2.624;2022-09-23T02:34:36;16.10;99.90
24148;DHT22;12309;51.450;-2.624;2022-09-23T02:37:43;16.10;99.90
24148;DHT22;12309;51.450;-2.624;2022-09-23T02:40:13;16.10;99.90
24148;DHT22;12309;51.450;-2.624;2022-09-23T02:45:10;16.00;99.90
24148;DHT22;12309;51.450;-2.624;2022-09-23T02:47:38;16.00;99.90
24148;DHT22;12309;51.450;-2.624;2022-09-23T02:50:06;16.00;99.90
24148;DHT22;12309;51.450;-2.624;2022-09-23T02:52:33;16.10;99.90
24148;DHT22;12309;51.450;-2.624;2022-09-23T02:55:03;16.10;99.90
24148;DHT22;12309;51.450;-2.624;2022-09-23T02:57:28;16.10;99.90
24148;DHT22;12309;51.450;-2.624;2022-09-23T02:59:54;16.10;99.90
24148;DHT22;12309;51.450;-2.624;2022-09-23T03:03:04;16.00;99.90
24148;DHT22;12309;51.450;-2.624;2022-09-23T03:05:22;16.00;99.90
24148;DHT22;12309;51.450;-2.624;2022-09-23T03:10:59;15.90;99.90
24148;DHT22;12309;51.450;-2.624;2022-09-23T03:16:33;15.90;99.90
24148;DHT22;12309;51.450;-2.624;2022-09-23T03:21:48;15.10;99.90
24148;DHT22;12309;51.450;-2.624;2022-09-23T03:24:17;15.80;99.90
24148;DHT22;12309;51.450;-2.624;2022-09-23T03:26:45;15.80;99.90
24148;DHT22;12309;51.450;-2.624;2022-09-23T03:29:13;15.80;99.90
24148;DHT22;12309;51.450;-2.624;2022-09-23T03:31:40;15.80;99.90
24148;DHT22;12309;51.450;-2.624;2022-09-23T03:34:18;15.80;99.90
24148;DHT22;12309;51.450;-2.624;2022-09-23T03:36:53;15.80;99.90
24148;DHT22;12309;51.450;-2.624;2022-09-23T03:39:39;15.80;99.90
24148;DHT22;12309;51.450;-2.624;2022-09-23T03:42:19;15.50;99.90
24148;DHT22;12309;51.450;-2.624;2022-09-23T03:44:47;15.80;99.90
24148;DHT22;12309;51.450;-2.624;2022-09-23T03:47:15;15.60;99.90
24148;DHT22;12309;51.450;-2.624;2022-09-23T03:49:46;15.70;99.90
24148;DHT22;12309;51.450;-2.624;2022-09-23T03:52:16;15.70;99.90
24148;DHT22;12309;51.450;-2.624;2022-09-23T03:54:42;15.80;99.90
24148;DHT22;12309;51.450;-2.624;2022-09-23T03:57:09;15.70;99.90
24148;DHT22;12309;51.450;-2.624;2022-09-23T03:59:36;15.70;99.90
24148;DHT22;12309;51.450;-2.624;2022-09-23T04:02:02;15.70;99.90
24148;DHT22;12309;51.450;-2.624;2022-09-23T04:04:28;15.70;99.90
24148;DHT22;12309;51.450;-2.624;2022-09-23T04:06:54;15.70;99.90
24148;DHT22;12309;51.450;-2.624;2022-09-23T04:09:21;15.70;99.90
24148;DHT22;12309;51.450;-2.624;2022-09-23T04:11:50;15.70;99.90
24148;DHT22;12309;51.450;-2.624;2022-09-23T04:14:17;15.70;99.90
24148;DHT22;12309;51.450;-2.624;2022-09-23T04:16:44;15.70;99.90
24148;DHT22;12309;51.450;-2.624;2022-09-23T04:19:10;15.60;99.90
24148;DHT22;12309;51.450;-2.624;2022-09-23T04:21:36;15.70;99.90
24148;DHT22;12309;51.450;-2.624;2022-09-23T04:24:02;15.70;99.90
24148;DHT22;12309;51.450;-2.624;2022-09-23T04:26:28;15.60;99.90
24148;DHT22;12309;51.450;-2.624;2022-09-23T04:28:54;15.60;99.90
24148;DHT22;12309;51.450;-2.624;2022-09-23T04:31:20;15.60;99.90
24148;DHT22;12309;51.450;-2.624;2022-09-23T04:33:48;15.60;99.90
24148;DHT22;12309;51.450;-2.624;2022-09-23T04:36:14;15.60;99.90
24148;DHT22;12309;51.450;-2.624;2022-09-23T04:38:42;15.50;99.90
24148;DHT22;12309;51.450;-2.624;2022-09-23T04:41:09;15.50;99.90
24148;DHT22;12309;51.450;-2.624;2022-09-23T04:43:35;15.60;99.90
24148;DHT22;12309;51.450;-2.624;2022-09-23T04:46:03;15.50;99.90
24148;DHT22;12309;51.450;-2.624;2022-09-23T04:48:29;15.50;99.90
24148;DHT22;12309;51.450;-2.624;2022-09-23T04:51:05;15.40;99.90
24148;DHT22;12309;51.450;-2.624;2022-09-23T04:53:33;15.40;99.90
24148;DHT22;12309;51.450;-2.624;2022-09-23T04:56:04;15.40;99.90
24148;DHT22;12309;51.450;-2.624;2022-09-23T04:58:30;15.30;99.90
24148;DHT22;12309;51.450;-2.624;2022-09-23T05:00:56;15.40;99.90
24148;DHT22;12309;51.450;-2.624;2022-09-23T05:03:22;15.30;99.90
24148;DHT22;12309;51.450;-2.624;2022-09-23T05:05:48;15.10;99.90
24148;DHT22;12309;51.450;-2.624;2022-09-23T05:08:14;15.20;99.90
24148;DHT22;12309;51.450;-2.624;2022-09-23T05:13:07;15.20;99.90
24148;DHT22;12309;51.450;-2.624;2022-09-23T05:15:33;15.20;99.90
24148;DHT22;12309;51.450;-2.624;2022-09-23T05:20:27;15.00;99.90
24148;DHT22;12309;51.450;-2.624;2022-09-23T05:22:52;15.20;99.90
24148;DHT22;12309;51.450;-2.624;2022-09-23T05:25:20;15.20;99.90
24148;DHT22;12309;51.450;-2.624;2022-09-23T05:27:48;15.20;99.90
24148;DHT22;12309;51.450;-2.624;2022-09-23T05:30:13;15.20;99.90
24148;DHT22;12309;51.450;-2.624;2022-09-23T05:35:05;15.30;99.90
24148;DHT22;12309;51.450;-2.624;2022-09-23T05:37:32;15.20;99.90
24148;DHT22;12309;51.450;-2.624;2022-09-23T05:39:57;15.20;99.90
24148;DHT22;12309;51.450;-2.624;2022-09-23T05:42:23;15.20;99.90
24148;DHT22;12309;51.450;-2.624;2022-09-23T05:47:15;15.20;99.90
24148;DHT22;12309;51.450;-2.624;2022-09-23T05:49:40;15.20;99.90
24148;DHT22;12309;51.450;-2.624;2022-09-23T05:52:06;15.20;99.90
24148;DHT22;12309;51.450;-2.624;2022-09-23T05:54:31;15.10;99.90
24148;DHT22;12309;51.450;-2.624;2022-09-23T05:56:57;15.30;99.90
24148;DHT22;12309;51.450;-2.624;2022-09-23T05:59:23;15.20;99.90
24148;DHT22;12309;51.450;-2.624;2022-09-23T06:01:49;15.20;99.90
24148;DHT22;12309;51.450;-2.624;2022-09-23T06:04:14;15.20;99.90
24148;DHT22;12309;51.450;-2.624;2022-09-23T06:06:41;15.20;99.90
24148;DHT22;12309;51.450;-2.624;2022-09-23T06:09:10;15.20;99.90
24148;DHT22;12309;51.450;-2.624;2022-09-23T06:11:37;15.30;99.90
24148;DHT22;12309;51.450;-2.624;2022-09-23T06:14:04;15.30;99.90
24148;DHT22;12309;51.450;-2.624;2022-09-23T06:16:32;15.20;99.90
24148;DHT22;12309;51.450;-2.624;2022-09-23T06:18:58;15.30;99.90
24148;DHT22;12309;51.450;-2.624;2022-09-23T06:21:29;15.30;99.90
24148;DHT22;12309;51.450;-2.624;2022-09-23T06:23:57;15.20;99.90
24148;DHT22;12309;51.450;-2.624;2022-09-23T06:26:25;15.20;99.90
24148;DHT22;12309;51.450;-2.624;2022-09-23T06:28:50;15.30;99.90
24148;DHT22;12309;51.450;-2.624;2022-09-23T06:31:17;15.20;99.90
24148;DHT22;12309;51.450;-2.624;2022-09-23T06:33:44;15.30;99.90
24148;DHT22;12309;51.450;-2.624;2022-09-23T06:36:11;15.30;99.90
24148;DHT22;12309;51.450;-2.624;2022-09-23T06:38:39;15.30;99.90
24148;DHT22;12309;51.450;-2.624;2022-09-23T06:41:05;15.30;99.90
24148;DHT22;12309;51.450;-2.624;2022-09-23T06:43:31;15.30;99.90
24148;DHT22;12309;51.450;-2.624;2022-09-23T06:45:59;15.40;99.90
24148;DHT22;12309;51.450;-2.624;2022-09-23T06:48:26;15.40;99.90
24148;DHT22;12309;51.450;-2.624;2022-09-23T06:50:53;15.50;99.90
24148;DHT22;12309;51.450;-2.624;2022-09-23T06:53:19;15.50;99.90
24148;DHT22;12309;51.450;-2.624;2022-09-23T06:55:48;15.50;99.90
24148;DHT22;12309;51.450;-2.624;2022-09-23T06:58:14;15.40;99.90
24148;DHT22;12309;51.450;-2.624;2022-09-23T07:00:39;15.50;99.90
24148;DHT22;12309;51.450;-2.624;2022-09-23T07:03:06;15.50;99.90
24148;DHT22;12309;51.450;-2.624;2022-09-23T07:05:33;15.60;99.90
24148;DHT22;12309;51.450;-2.624;2022-09-23T07:07:58;15.80;99.90
24148;DHT22;12309;51.450;-2.624;2022-09-23T07:10:25;15.40;99.90
24148;DHT22;12309;51.450;-2.624;2022-09-23T07:12:53;15.50;99.90
24148;DHT22;12309;51.450;-2.624;2022-09-23T07:15:19;15.70;99.90
24148;DHT22;12309;51.450;-2.624;2022-09-23T07:17:45;15.80;99.90
24148;DHT22;12309;51.450;-2.624;2022-09-23T07:20:10;15.70;99.90
24148;DHT22;12309;51.450;-2.624;2022-09-23T07:22:37;15.70;99.90
24148;DHT22;12309;51.450;-2.624;2022-09-23T07:25:03;15.70;99.90
24148;DHT22;12309;51.450;-2.624;2022-09-23T07:29:57;15.80;99.90
24148;DHT22;12309;51.450;-2.624;2022-09-23T07:34:50;15.90;99.90
24148;DHT22;12309;51.450;-2.624;2022-09-23T07:37:16;16.00;99.90
24148;DHT22;12309;51.450;-2.624;2022-09-23T07:39:43;16.30;99.90
24148;DHT22;12309;51.450;-2.624;2022-09-23T07:42:10;16.30;99.90
24148;DHT22;12309;51.450;-2.624;2022-09-23T07:44:36;16.00;99.90
24148;DHT22;12309;51.450;-2.624;2022-09-23T07:47:02;16.20;99.90
24148;DHT22;12309;51.450;-2.624;2022-09-23T07:49:28;16.30;99.90
24148;DHT22;12309;51.450;-2.624;2022-09-23T07:51:54;16.20;99.90
24148;DHT22;12309;51.450;-2.624;2022-09-23T07:54:20;16.30;99.90
24148;DHT22;12309;51.450;-2.624;2022-09-23T07:56:46;16.30;99.90
24148;DHT22;12309;51.450;-2.624;2022-09-23T07:59:14;16.40;99.90
24148;DHT22;12309;51.450;-2.624;2022-09-23T08:01:46;16.50;99.90
24148;DHT22;12309;51.450;-2.624;2022-09-23T08:04:25;16.60;99.90
24148;DHT22;12309;51.450;-2.624;2022-09-23T08:06:54;16.70;99.90
24148;DHT22;12309;51.450;-2.624;2022-09-23T08:09:23;16.60;99.90
24148;DHT22;12309;51.450;-2.624;2022-09-23T08:11:50;16.70;99.90
24148;DHT22;12309;51.450;-2.624;2022-09-23T08:14:17;17.00;99.90
24148;DHT22;12309;51.450;-2.624;2022-09-23T08:16:43;17.10;99.90
24148;DHT22;12309;51.450;-2.624;2022-09-23T08:19:10;17.10;99.90
24148;DHT22;12309;51.450;-2.624;2022-09-23T08:21:37;17.00;99.90
24148;DHT22;12309;51.450;-2.624;2022-09-23T08:24:04;17.00;99.90
24148;DHT22;12309;51.450;-2.624;2022-09-23T08:26:30;16.90;99.90
24148;DHT22;12309;51.450;-2.624;2022-09-23T08:28:58;17.00;99.90
24148;DHT22;12309;51.450;-2.624;2022-09-23T08:31:24;16.80;99.90
24148;DHT22;12309;51.450;-2.624;2022-09-23T08:33:58;16.90;99.90
24148;DHT22;12309;51.450;-2.624;2022-09-23T08:36:24;16.90;99.90
24148;DHT22;12309;51.450;-2.624;2022-09-23T08:38:50;16.90;99.90
24148;DHT22;12309;51.450;-2.624;2022-09-23T08:41:30;17.10;99.90
24148;DHT22;12309;51.450;-2.624;2022-09-23T08:44:03;17.10;99.90
24148;DHT22;12309;51.450;-2.624;2022-09-23T08:46:35;17.40;99.90
24148;DHT22;12309;51.450;-2.624;2022-09-23T08:49:03;17.50;99.90
24148;DHT22;12309;51.450;-2.624;2022-09-23T08:51:44;17.60;99.90
24148;DHT22;12309;51.450;-2.624;2022-09-23T08:54:11;17.80;99.90
24148;DHT22;12309;51.450;-2.624;2022-09-23T08:56:38;18.30;99.90
24148;DHT22;12309;51.450;-2.624;2022-09-23T08:59:13;18.20;99.90
24148;DHT22;12309;51.450;-2.624;2022-09-23T09:01:51;18.30;99.90
24148;DHT22;12309;51.450;-2.624;2022-09-23T09:07:01;18.60;99.90
24148;DHT22;12309;51.450;-2.624;2022-09-23T09:09:59;18.60;99.90
24148;DHT22;12309;51.450;-2.624;2022-09-23T09:12:43;18.60;99.90
24148;DHT22;12309;51.450;-2.624;2022-09-23T09:18:04;18.10;99.90
24148;DHT22;12309;51.450;-2.624;2022-09-23T09:20:43;18.20;99.90
24148;DHT22;12309;51.450;-2.624;2022-09-23T09:25:45;18.80;99.90
24148;DHT22;12309;51.450;-2.624;2022-09-23T09:28:21;19.30;99.90
24148;DHT22;12309;51.450;-2.624;2022-09-23T09:30:58;19.30;99.90
24148;DHT22;12309;51.450;-2.624;2022-09-23T09:33:31;19.60;99.90
24148;DHT22;12309;51.450;-2.624;2022-09-23T09:38:51;19.70;99.90
24148;DHT22;12309;51.450;-2.624;2022-09-23T09:41:18;19.90;99.90
24148;DHT22;12309;51.450;-2.624;2022-09-23T09:43:46;20.30;99.90
24148;DHT22;12309;51.450;-2.624;2022-09-23T09:46:41;21.00;99.90
24148;DHT22;12309;51.450;-2.624;2022-09-23T09:49:33;21.40;99.90
24148;DHT22;12309;51.450;-2.624;2022-09-23T09:52:22;21.20;99.90
24148;DHT22;12309;51.450;-2.624;2022-09-23T09:54:49;22.30;99.90
24148;DHT22;12309;51.450;-2.624;2022-09-23T09:58:03;21.90;99.90
24148;DHT22;12309;51.450;-2.624;2022-09-23T10:02:56;22.90;99.90
24148;DHT22;12309;51.450;-2.624;2022-09-23T10:11:17;21.20;99.90
24148;DHT22;12309;51.450;-2.624;2022-09-23T10:14:03;22.30;99.90
24148;DHT22;12309;51.450;-2.624;2022-09-23T10:16:31;23.70;99.90
24148;DHT22;12309;51.450;-2.624;2022-09-23T10:18:59;24.40;99.90
24148;DHT22;12309;51.450;-2.624;2022-09-23T10:21:32;25.50;99.90
24148;DHT22;12309;51.450;-2.624;2022-09-23T10:24:00;27.20;99.90
24148;DHT22;12309;51.450;-2.624;2022-09-23T10:26:42;27.10;99.90
24148;DHT22;12309;51.450;-2.624;2022-09-23T10:29:28;27.40;99.90
24148;DHT22;12309;51.450;-2.624;2022-09-23T10:32:22;27.60;99.90
24148;DHT22;12309;51.450;-2.624;2022-09-23T10:35:14;25.20;99.90
24148;DHT22;12309;51.450;-2.624;2022-09-23T10:37:45;25.80;99.90
24148;DHT22;12309;51.450;-2.624;2022-09-23T10:40:31;25.10;99.90
24148;DHT22;12309;51.450;-2.624;2022-09-23T10:46:59;24.60;99.90
24148;DHT22;12309;51.450;-2.624;2022-09-23T11:15:08;26.20;99.90
24148;DHT22;12309;51.450;-2.624;2022-09-23T11:17:33;26.30;99.90
24148;DHT22;12309;51.450;-2.624;2022-09-23T11:20:26;24.80;99.90
24148;DHT22;12309;51.450;-2.624;2022-09-23T11:23:13;26.50;99.90
24148;DHT22;12309;51.450;-2.624;2022-09-23T11:26:22;26.10;99.90
24148;DHT22;12309;51.450;-2.624;2022-09-23T11:36:55;26.50;99.90
24148;DHT22;12309;51.450;-2.624;2022-09-23T11:39:50;28.00;99.90
24148;DHT22;12309;51.450;-2.624;2022-09-23T11:42:24;28.40;99.90
24148;DHT22;12309;51.450;-2.624;2022-09-23T11:44:59;29.40;99.90
24148;DHT22;12309;51.450;-2.624;2022-09-23T11:47:34;30.00;99.90
24148;DHT22;12309;51.450;-2.624;2022-09-23T11:52:45;29.50;99.90
24148;DHT22;12309;51.450;-2.624;2022-09-23T11:55:18;29.50;99.90
24148;DHT22;12309;51.450;-2.624;2022-09-23T11:57:50;30.00;99.90
24148;DHT22;12309;51.450;-2.624;2022-09-23T12:00:24;30.20;99.90
24148;DHT22;12309;51.450;-2.624;2022-09-23T12:03:06;29.10;99.90
24148;DHT22;12309;51.450;-2.624;2022-09-23T12:08:29;27.10;99.90
24148;DHT22;12309;51.450;-2.624;2022-09-23T12:11:02;26.40;99.90
24148;DHT22;12309;51.450;-2.624;2022-09-23T12:27:08;27.10;99.90
24148;DHT22;12309;51.450;-2.624;2022-09-23T12:29:36;27.70;99.90
24148;DHT22;12309;51.450;-2.624;2022-09-23T12:32:03;28.80;99.90
24148;DHT22;12309;51.450;-2.624;2022-09-23T12:34:41;29.10;99.90
24148;DHT22;12309;51.450;-2.624;2022-09-23T12:37:22;29.00;99.90
24148;DHT22;12309;51.450;-2.624;2022-09-23T12:39:48;29.90;99.90
24148;DHT22;12309;51.450;-2.624;2022-09-23T12:42:19;30.60;99.90
24148;DHT22;12309;51.450;-2.624;2022-09-23T12:44:47;30.80;99.90
24148;DHT22;12309;51.450;-2.624;2022-09-23T12:49:39;31.10;99.90
24148;DHT22;12309;51.450;-2.624;2022-09-23T12:52:12;31.60;99.90
24148;DHT22;12309;51.450;-2.624;2022-09-23T12:54:39;30.40;99.90
24148;DHT22;12309;51.450;-2.624;2022-09-23T12:57:13;29.00;99.90
24148;DHT22;12309;51.450;-2.624;2022-09-23T13:02:31;27.70;99.90
24148;DHT22;12309;51.450;-2.624;2022-09-23T13:05:01;28.40;99.90
24148;DHT22;12309;51.450;-2.624;2022-09-23T13:07:47;29.20;99.90
24148;DHT22;12309;51.450;-2.624;2022-09-23T13:10:20;30.00;99.90
24148;DHT22;12309;51.450;-2.624;2022-09-23T13:12:49;29.60;99.90
24148;DHT22;12309;51.450;-2.624;2022-09-23T13:15:35;27.80;99.90
24148;DHT22;12309;51.450;-2.624;2022-09-23T13:18:55;25.60;99.90
24148;DHT22;12309;51.450;-2.624;2022-09-23T13:26:54;26.70;99.90
24148;DHT22;12309;51.450;-2.624;2022-09-23T13:29:49;26.70;99.90
24148;DHT22;12309;51.450;-2.624;2022-09-23T13:32:18;25.60;99.90
24148;DHT22;12309;51.450;-2.624;2022-09-23T13:35:02;24.80;99.90
24148;DHT22;12309;51.450;-2.624;2022-09-23T13:37:48;23.10;99.90
24148;DHT22;12309;51.450;-2.624;2022-09-23T13:40:24;22.90;99.90
24148;DHT22;12309;51.450;-2.624;2022-09-23T13:43:02;22.70;99.90
24148;DHT22;12309;51.450;-2.624;2022-09-23T13:45:29;23.10;99.90
24148;DHT22;12309;51.450;-2.624;2022-09-23T13:48:10;24.40;99.90
24148;DHT22;12309;51.450;-2.624;2022-09-23T13:50:38;25.50;99.90
24148;DHT22;12309;51.450;-2.624;2022-09-23T13:53:08;27.50;99.90
24148;DHT22;12309;51.450;-2.624;2022-09-23T13:55:36;29.60;99.90
24148;DHT22;12309;51.450;-2.624;2022-09-23T13:58:23;29.40;99.90
24148;DHT22;12309;51.450;-2.624;2022-09-23T14:00:50;29.40;99.90
24148;DHT22;12309;51.450;-2.624;2022-09-23T14:05:53;30.70;99.90
24148;DHT22;12309;51.450;-2.624;2022-09-23T14:08:20;30.70;99.90
24148;DHT22;12309;51.450;-2.624;2022-09-23T14:10:47;31.30;99.90
24148;DHT22;12309;51.450;-2.624;2022-09-23T14:13:20;31.40;99.90
24148;DHT22;12309;51.450;-2.624;2022-09-23T14:15:48;32.00;99.90
24148;DHT22;12309;51.450;-2.624;2022-09-23T14:18:21;31.50;99.90
24148;DHT22;12309;51.450;-2.624;2022-09-23T14:20:50;30.40;99.90
24148;DHT22;12309;51.450;-2.624;2022-09-23T14:23:16;30.40;99.90
24148;DHT22;12309;51.450;-2.624;2022-09-23T14:25:42;30.60;99.90
24148;DHT22;12309;51.450;-2.624;2022-09-23T14:28:20;30.40;99.90
24148;DHT22;12309;51.450;-2.624;2022-09-23T14:30:48;30.10;99.90
24148;DHT22;12309;51.450;-2.624;2022-09-23T14:33:16;30.60;99.90
24148;DHT22;12309;51.450;-2.624;2022-09-23T14:35:47;29.80;99.90
24148;DHT22;12309;51.450;-2.624;2022-09-23T14:38:26;28.90;99.90
24148;DHT22;12309;51.450;-2.624;2022-09-23T14:43:57;27.10;99.90
24148;DHT22;12309;51.450;-2.624;2022-09-23T14:46:26;25.90;99.90
24148;DHT22;12309;51.450;-2.624;2022-09-23T14:48:58;25.60;99.90
24148;DHT22;12309;51.450;-2.624;2022-09-23T14:51:48;25.10;99.90
24148;DHT22;12309;51.450;-2.624;2022-09-23T14:54:35;26.00;99.90
24148;DHT22;12309;51.450;-2.624;2022-09-23T14:57:16;27.80;99.90
24148;DHT22;12309;51.450;-2.624;2022-09-23T14:59:52;27.70;99.90
24148;DHT22;12309;51.450;-2.624;2022-09-23T15:02:49;26.50;99.90
24148;DHT22;12309;51.450;-2.624;2022-09-23T15:05:29;25.90;99.90
24148;DHT22;12309;51.450;-2.624;2022-09-23T15:07:59;26.00;99.90
24148;DHT22;12309;51.450;-2.624;2022-09-23T15:10:30;28.10;99.90
24148;DHT22;12309;51.450;-2.624;2022-09-23T15:13:04;28.10;99.90
24148;DHT22;12309;51.450;-2.624;2022-09-23T15:15:31;28.70;99.90
24148;DHT22;12309;51.450;-2.624;2022-09-23T15:18:30;29.50;99.90
24148;DHT22;12309;51.450;-2.624;2022-09-23T15:21:06;29.50;99.90
24148;DHT22;12309;51.450;-2.624;2022-09-23T15:23:50;29.20;99.90
24148;DHT22;12309;51.450;-2.624;2022-09-23T15:26:17;29.10;99.90
24148;DHT22;12309;51.450;-2.624;2022-09-23T15:28:44;29.40;99.90
24148;DHT22;12309;51.450;-2.624;2022-09-23T15:31:11;30.20;99.90
24148;DHT22;12309;51.450;-2.624;2022-09-23T15:33:37;29.70;99.90
24148;DHT22;12309;51.450;-2.624;2022-09-23T15:36:03;29.70;99.90
24148;DHT22;12309;51.450;-2.624;2022-09-23T15:38:29;28.80;99.90
24148;DHT22;12309;51.450;-2.624;2022-09-23T15:40:55;29.10;99.90
24148;DHT22;12309;51.450;-2.624;2022-09-23T15:43:22;28.90;99.90
24148;DHT22;12309;51.450;-2.624;2022-09-23T15:45:58;29.30;99.90
24148;DHT22;12309;51.450;-2.624;2022-09-23T15:48:34;29.40;99.90
24148;DHT22;12309;51.450;-2.624;2022-09-23T15:51:05;29.70;99.90
24148;DHT22;12309;51.450;-2.624;2022-09-23T15:53:32;29.50;99.90
24148;DHT22;12309;51.450;-2.624;2022-09-23T15:55:58;29.30;99.90
24148;DHT22;12309;51.450;-2.624;2022-09-23T15:58:25;28.90;99.90
24148;DHT22;12309;51.450;-2.624;2022-09-23T16:00:54;28.90;99.90
24148;DHT22;12309;51.450;-2.624;2022-09-23T16:03:20;28.10;99.90
24148;DHT22;12309;51.450;-2.624;2022-09-23T16:05:50;27.30;99.90
24148;DHT22;12309;51.450;-2.624;2022-09-23T16:08:15;26.40;99.90
24148;DHT22;12309;51.450;-2.624;2022-09-23T16:10:44;26.70;99.90
24148;DHT22;12309;51.450;-2.624;2022-09-23T16:13:11;27.00;99.90
24148;DHT22;12309;51.450;-2.624;2022-09-23T16:15:38;26.70;99.90
24148;DHT22;12309;51.450;-2.624;2022-09-23T16:18:05;25.80;99.90
24148;DHT22;12309;51.450;-2.624;2022-09-23T16:20:34;25.60;99.90
24148;DHT22;12309;51.450;-2.624;2022-09-23T16:23:04;25.10;99.90
24148;DHT22;12309;51.450;-2.624;2022-09-23T16:25:32;24.00;99.90
24148;DHT22;12309;51.450;-2.624;2022-09-23T16:28:01;23.90;99.90
24148;DHT22;12309;51.450;-2.624;2022-09-23T16:30:28;23.90;99.90
24148;DHT22;12309;51.450;-2.624;2022-09-23T16:32:55;25.00;99.90
24148;DHT22;12309;51.450;-2.624;2022-09-23T16:35:22;25.00;99.90
24148;DHT22;12309;51.450;-2.624;2022-09-23T16:37:48;25.00;99.90
24148;DHT22;12309;51.450;-2.624;2022-09-23T16:40:17;24.70;99.90
24148;DHT22;12309;51.450;-2.624;2022-09-23T16:42:45;24.60;99.90
24148;DHT22;12309;51.450;-2.624;2022-09-23T16:45:12;24.70;99.90
24148;DHT22;12309;51.450;-2.624;2022-09-23T16:47:43;25.00;99.90
24148;DHT22;12309;51.450;-2.624;2022-09-23T16:50:15;25.00;99.90
24148;DHT22;12309;51.450;-2.624;2022-09-23T16:52:41;25.20;99.90
24148;DHT22;12309;51.450;-2.624;2022-09-23T16:55:08;25.40;99.90
24148;DHT22;12309;51.450;-2.624;2022-09-23T16:57:36;25.50;99.90
24148;DHT22;12309;51.450;-2.624;2022-09-23T17:00:07;25.60;99.90
24148;DHT22;12309;51.450;-2.624;2022-09-23T17:02:52;25.20;99.90
24148;DHT22;12309;51.450;-2.624;2022-09-23T17:05:36;25.70;99.90
24148;DHT22;12309;51.450;-2.624;2022-09-23T17:08:02;25.90;99.90
24148;DHT22;12309;51.450;-2.624;2022-09-23T17:10:28;25.40;99.90
24148;DHT22;12309;51.450;-2.624;2022-09-23T17:12:54;25.20;99.90
24148;DHT22;12309;51.450;-2.624;2022-09-23T17:15:21;25.20;99.90
24148;DHT22;12309;51.450;-2.624;2022-09-23T17:17:46;25.10;99.90
24148;DHT22;12309;51.450;-2.624;2022-09-23T17:20:12;24.80;99.90
24148;DHT22;12309;51.450;-2.624;2022-09-23T17:22:39;24.50;99.90
24148;DHT22;12309;51.450;-2.624;2022-09-23T17:25:06;23.50;99.90
24148;DHT22;12309;51.450;-2.624;2022-09-23T17:27:31;22.70;99.90
24148;DHT22;12309;51.450;-2.624;2022-09-23T17:29:57;22.10;99.90
24148;DHT22;12309;51.450;-2.624;2022-09-23T17:32:23;21.60;99.90
24148;DHT22;12309;51.450;-2.624;2022-09-23T17:34:49;21.00;99.90
24148;DHT22;12309;51.450;-2.624;2022-09-23T17:37:15;20.60;99.90
24148;DHT22;12309;51.450;-2.624;2022-09-23T17:39:40;20.20;99.90
24148;DHT22;12309;51.450;-2.624;2022-09-23T17:42:07;20.10;99.90
24148;DHT22;12309;51.450;-2.624;2022-09-23T17:44:33;21.10;99.90
24148;DHT22;12309;51.450;-2.624;2022-09-23T17:46:59;19.50;99.90
24148;DHT22;12309;51.450;-2.624;2022-09-23T17:49:25;19.50;99.90
24148;DHT22;12309;51.450;-2.624;2022-09-23T17:51:51;19.20;99.90
24148;DHT22;12309;51.450;-2.624;2022-09-23T17:54:16;19.10;99.90
24148;DHT22;12309;51.450;-2.624;2022-09-23T17:56:42;19.00;99.90
24148;DHT22;12309;51.450;-2.624;2022-09-23T17:59:09;18.80;99.90